Time;durP1;ratioP1;P1;durP2;ratioP2;P2;SDS_P1;SDS_P2;PMS_P1;PMS_P2;Temp;Humidity;BMP_temperature;BMP_pressure;BME280_temperature;BME280_humidity;BME280_pressure;Samples;Min_cycle;Max_cycle;Signal;HPM_P1;HPM_P2
2021/04/18 00:02:21;;;;;;;17.15;4.82;;;4.90;99.90;;;5.89;74.03;101226.91;4814100;29;20062;-85
2021/04/18 00:04:47;;;;;;;10.40;3.72;;;4.90;99.90;;;5.79;74.58;101222.41;4830116;29;20026;-82
2021/04/18 00:07:13;;;;;;;10.45;4.60;;;4.80;99.90;;;5.71;74.93;101217.59;4814779;29;20393;-82
2021/04/18 00:09:40;;;;;;;10.85;4.15;;;4.70;99.90;;;5.64;74.94;101221.94;4813753;29;20045;-84
2021/04/18 00:12:07;;;;;;;8.07;4.38;;;4.70;99.90;;;5.60;75.39;101223.66;4814322;29;20039;-85
2021/04/18 00:14:33;;;;;;;11.35;5.03;;;4.60;99.90;;;5.52;75.91;101227.19;4815281;29;20063;-84
2021/04/18 00:16:59;;;;;;;9.05;4.55;;;4.50;99.90;;;5.43;75.96;101224.31;4819734;29;20034;-85
2021/04/18 00:19:25;;;;;;;12.30;4.68;;;4.50;99.90;;;5.41;76.35;101214.69;4826598;29;20126;-85
2021/04/18 00:21:50;;;;;;;7.22;4.57;;;4.40;99.90;;;5.35;76.82;101229.75;4834694;29;20026;-86
2021/04/18 00:24:16;;;;;;;7.32;4.15;;;4.40;99.90;;;5.30;77.04;101225.13;4827514;29;20045;-84
2021/04/18 00:26:43;;;;;;;9.38;4.43;;;4.30;99.90;;;5.27;76.70;101221.03;4829327;29;20030;-86
2021/04/18 00:29:09;;;;;;;10.15;4.75;;;4.30;99.90;;;5.28;77.07;101213.56;4812748;29;20034;-85
2021/04/18 00:31:40;;;;;;;17.35;4.93;;;4.30;99.90;;;5.32;77.26;101220.13;4811213;29;20042;-88
2021/04/18 00:34:05;;;;;;;14.30;5.88;;;4.30;99.90;;;5.28;77.32;101221.88;4814352;29;20041;-85
2021/04/18 00:36:31;;;;;;;9.52;5.03;;;4.30;99.90;;;5.28;77.44;101213.56;4817737;29;20038;-86
2021/04/18 00:38:58;;;;;;;12.85;4.97;;;4.30;99.90;;;5.25;77.42;101205.88;4820047;29;20354;-87
2021/04/18 00:41:25;;;;;;;12.23;5.00;;;4.30;99.90;;;5.20;77.88;101211.53;4813574;29;20067;-84
2021/04/18 00:43:51;;;;;;;11.30;5.70;;;4.20;99.90;;;5.13;78.17;101205.59;4832691;29;20367;-85
2021/04/18 00:46:17;;;;;;;8.50;5.35;;;4.20;99.90;;;5.13;78.60;101208.34;4833548;29;20471;-85
2021/04/18 00:48:45;;;;;;;8.75;5.20;;;4.20;99.90;;;5.19;78.75;101204.34;4818676;29;20057;-86
2021/04/18 00:51:14;;;;;;;12.70;5.47;;;4.20;99.90;;;5.18;78.15;101206.28;4824234;29;20033;-84
2021/04/18 00:53:42;;;;;;;14.70;6.13;;;4.20;99.90;;;5.23;78.66;101208.16;4827888;29;20042;-84
2021/04/18 00:56:10;;;;;;;10.43;4.60;;;4.20;99.90;;;5.26;78.64;101210.28;4833651;24;20043;-84
2021/04/18 00:58:38;;;;;;;11.38;5.30;;;4.20;99.90;;;5.32;78.64;101214.59;4792590;29;20479;-81
2021/04/18 01:01:07;;;;;;;10.18;4.88;;;4.30;99.90;;;5.37;78.15;101213.66;4809446;29;20117;-82
2021/04/18 01:03:34;;;;;;;10.45;5.28;;;4.30;99.90;;;5.41;78.52;101209.13;4794168;29;20027;-82
2021/04/18 01:06:00;;;;;;;10.35;5.13;;;4.30;99.90;;;5.38;78.44;101207.00;4811242;29;20062;-86
2021/04/18 01:08:26;;;;;;;11.02;5.45;;;4.30;99.90;;;5.30;78.31;101200.22;4816520;29;20027;-84
2021/04/18 01:10:52;;;;;;;10.95;5.13;;;4.30;99.90;;;5.21;79.00;101199.31;4837675;29;20035;-82
2021/04/18 01:13:18;;;;;;;8.13;5.53;;;4.20;99.90;;;5.10;79.19;101200.66;4842532;29;20076;-79
2021/04/18 01:15:44;;;;;;;11.48;5.70;;;4.10;99.90;;;5.01;79.30;101195.00;4824240;29;20034;-82
2021/04/18 01:18:09;;;;;;;8.48;4.88;;;4.10;99.90;;;4.94;79.87;101199.31;4826104;29;20034;-83
2021/04/18 01:20:36;;;;;;;10.57;5.38;;;4.00;99.90;;;4.90;79.98;101198.28;4827024;29;20049;-82
2021/04/18 01:23:02;;;;;;;15.48;6.30;;;3.90;99.90;;;4.89;80.00;101197.47;4835218;29;20038;-82
2021/04/18 01:25:27;;;;;;;7.68;4.70;;;3.90;99.90;;;4.92;80.08;101199.63;4825872;29;20061;-82
2021/04/18 01:27:55;;;;;;;12.70;4.97;;;3.90;99.90;;;4.93;80.11;101197.69;4826219;29;20439;-85
2021/04/18 01:30:29;;;;;;;10.20;4.70;;;3.90;99.90;;;4.90;79.78;101196.34;4826978;29;20061;-83
2021/04/18 01:33:01;;;;;;;10.55;5.53;;;3.90;99.90;;;4.80;80.05;101193.78;4810642;29;20479;-83
2021/04/18 01:35:28;;;;;;;11.30;5.43;;;3.80;99.90;;;4.71;80.21;101192.84;4826792;29;20555;-84
2021/04/18 01:37:54;;;;;;;12.30;6.40;;;3.70;99.90;;;4.82;79.88;101191.50;4810389;29;20094;-83
2021/04/18 01:40:25;;;;;;;11.07;5.25;;;3.70;99.90;;;4.88;79.78;101195.81;4810525;29;20133;-84
2021/04/18 01:42:51;;;;;;;9.23;5.03;;;3.70;99.90;;;4.89;79.87;101191.94;4828222;29;20109;-84
2021/04/18 01:45:19;;;;;;;14.13;5.65;;;3.70;99.90;;;4.95;79.97;101187.09;4826263;29;20202;-84
2021/04/18 01:47:46;;;;;;;9.85;5.35;;;3.70;99.90;;;5.02;79.72;101185.56;4810521;29;20611;-83
2021/04/18 01:50:17;;;;;;;12.68;5.90;;;3.70;99.90;;;5.14;79.71;101185.03;4826602;29;20050;-80
2021/04/18 01:52:48;;;;;;;12.55;5.60;;;3.80;99.90;;;5.23;79.65;101191.53;4809435;29;20038;-83
2021/04/18 01:55:17;;;;;;;11.50;5.85;;;3.90;99.90;;;5.28;79.64;101178.38;4809985;29;20069;-81
2021/04/18 01:57:43;;;;;;;14.93;5.72;;;4.00;99.90;;;5.37;79.89;101188.72;4825682;29;20042;-82
2021/04/18 02:00:14;;;;;;;14.15;5.88;;;4.10;99.90;;;5.40;79.79;101188.91;4808813;29;20057;-84
2021/04/18 02:02:42;;;;;;;12.00;5.78;;;4.10;99.90;;;5.47;79.26;101186.53;4825807;29;20379;-82
2021/04/18 02:05:09;;;;;;;9.60;5.65;;;4.20;99.90;;;5.55;79.34;101185.00;4809062;29;20039;-84
2021/04/18 02:07:35;;;;;;;8.75;5.05;;;4.20;99.90;;;5.63;79.06;101187.03;4809137;29;20038;-81
2021/04/18 02:10:02;;;;;;;11.50;5.22;;;4.30;99.90;;;5.68;79.00;101189.69;4808033;29;20045;-85
2021/04/18 02:12:28;;;;;;;16.42;6.10;;;4.40;99.90;;;5.72;79.35;101185.13;4790832;29;20054;-81
2021/04/18 02:14:55;;;;;;;7.32;5.53;;;4.40;99.90;;;5.59;79.92;101183.22;4790722;29;20047;-83
2021/04/18 02:17:21;;;;;;;9.65;5.13;;;4.50;99.90;;;5.79;79.69;101182.75;4806571;29;20396;-83
2021/04/18 02:19:47;;;;;;;9.48;5.03;;;4.50;99.90;;;5.82;79.14;101184.91;4807370;29;20043;-83
2021/04/18 02:22:13;;;;;;;10.60;5.15;;;4.60;99.90;;;5.79;79.64;101186.34;4807459;29;20031;-85
2021/04/18 02:24:38;;;;;;;13.32;5.20;;;4.70;99.90;;;5.87;78.99;101184.84;4793212;29;20035;-83
2021/04/18 02:27:05;;;;;;;12.45;5.13;;;4.70;99.90;;;5.93;78.64;101180.81;4809413;29;20035;-84
2021/04/18 02:29:30;;;;;;;7.07;4.80;;;4.80;99.90;;;6.00;78.56;101178.41;4807675;29;20058;-81
2021/04/18 02:31:56;;;;;;;9.27;5.97;;;4.90;99.90;;;6.06;78.51;101181.88;4805737;29;20043;-82
2021/04/18 02:34:22;;;;;;;11.95;4.80;;;4.90;99.90;;;6.09;78.21;101186.78;4789955;29;20035;-84
2021/04/18 02:36:48;;;;;;;11.82;5.55;;;5.00;99.90;;;6.11;78.19;101178.97;4790196;29;20051;-82
2021/04/18 02:39:14;;;;;;;7.25;4.45;;;5.00;99.90;;;6.26;77.84;101178.59;4806157;29;20042;-82
2021/04/18 02:41:40;;;;;;;11.00;5.40;;;5.00;99.90;;;6.30;77.77;101177.63;4807092;29;20039;-82
2021/04/18 02:44:06;;;;;;;10.50;5.15;;;5.00;99.90;;;6.33;77.85;101178.94;4792239;29;20043;-85
2021/04/18 02:46:32;;;;;;;10.73;4.35;;;5.00;99.90;;;6.35;77.32;101182.25;4794104;29;20104;-84
2021/04/18 02:48:58;;;;;;;9.55;5.45;;;5.00;99.90;;;6.37;77.79;101185.50;4795177;29;20035;-83
2021/04/18 02:51:24;;;;;;;11.35;5.30;;;5.00;99.90;;;6.40;77.50;101178.50;4811510;29;20077;-84
2021/04/18 02:53:51;;;;;;;8.32;5.07;;;5.10;99.90;;;6.41;77.11;101180.97;4812073;29;20476;-83
2021/04/18 02:56:17;;;;;;;9.45;4.82;;;5.10;99.90;;;6.43;77.14;101175.09;4795981;29;20042;-84
2021/04/18 02:58:43;;;;;;;10.98;5.18;;;5.10;99.90;;;6.48;76.99;101166.66;4813735;29;20049;-82
2021/04/18 03:01:09;;;;;;;8.48;5.30;;;5.10;99.90;;;6.48;76.39;101163.88;4813211;29;20035;-83
2021/04/18 03:03:35;;;;;;;10.18;5.88;;;5.20;99.90;;;6.52;76.57;101168.44;4810931;29;20038;-83
2021/04/18 03:06:01;;;;;;;8.02;5.00;;;5.20;99.90;;;6.54;76.20;101171.75;4794486;29;20152;-84
2021/04/18 03:08:27;;;;;;;11.70;5.05;;;5.20;99.90;;;6.59;76.04;101166.03;4802272;29;20064;-83
2021/04/18 03:10:53;;;;;;;9.98;5.50;;;5.20;99.90;;;6.63;75.59;101175.38;4828508;29;20039;-84
2021/04/18 03:13:18;;;;;;;10.63;5.50;;;5.30;99.90;;;6.64;75.43;101171.47;4813413;29;20030;-83
2021/04/18 03:15:45;;;;;;;9.45;4.97;;;5.30;99.90;;;6.69;75.40;101162.16;4829555;29;20042;-82
2021/04/18 03:18:11;;;;;;;9.75;5.43;;;5.30;99.90;;;6.72;75.02;101167.91;4812828;29;20034;-83
2021/04/18 03:20:37;;;;;;;8.18;5.32;;;5.30;99.90;;;6.77;74.78;101158.63;4828951;29;20057;-85
2021/04/18 03:23:03;;;;;;;12.13;5.22;;;5.40;99.90;;;6.77;74.82;101156.69;4829510;29;20045;-83
2021/04/18 03:25:29;;;;;;;10.65;5.68;;;5.40;99.90;;;6.79;74.68;101150.78;4828484;29;20034;-83
2021/04/18 03:27:55;;;;;;;12.80;5.57;;;5.40;99.90;;;6.77;75.12;101153.06;4811784;29;20034;-82
2021/04/18 03:30:22;;;;;;;11.30;5.32;;;5.40;99.90;;;6.75;75.44;101147.00;4827868;29;20038;-81
2021/04/18 03:32:48;;;;;;;11.10;5.47;;;5.40;99.90;;;6.72;75.75;101147.66;4811580;29;20383;-85
2021/04/18 03:35:15;;;;;;;9.02;5.53;;;5.40;99.90;;;6.70;76.11;101145.22;4829705;29;20045;-83
2021/04/18 03:37:41;;;;;;;9.45;4.55;;;5.40;99.90;;;6.69;76.17;101146.34;4838506;29;20053;-79
2021/04/18 03:40:08;;;;;;;12.95;5.93;;;5.30;99.90;;;6.72;75.23;101145.69;4816389;29;20061;-83
2021/04/18 03:42:34;;;;;;;8.90;4.60;;;5.40;99.90;;;6.77;74.93;101155.84;4812447;29;20039;-83
2021/04/18 03:45:00;;;;;;;8.60;5.35;;;5.40;99.90;;;6.78;75.04;101152.75;4811787;29;20045;-82
2021/04/18 03:47:26;;;;;;;8.55;4.75;;;5.40;99.90;;;6.78;75.04;101158.28;4812388;29;20030;-84
2021/04/18 03:49:51;;;;;;;14.63;4.88;;;5.50;99.90;;;6.69;75.64;101160.22;4811880;29;20483;-81
2021/04/18 03:52:17;;;;;;;9.13;4.88;;;5.50;99.90;;;6.66;75.53;101158.09;4812851;29;20045;-82
2021/04/18 03:54:43;;;;;;;11.57;5.90;;;5.50;99.90;;;6.72;74.93;101167.09;4828537;29;20038;-82
2021/04/18 03:57:09;;;;;;;11.30;5.25;;;5.50;99.90;;;6.73;74.57;101165.94;4811843;29;20061;-82
2021/04/18 03:59:35;;;;;;;11.32;6.03;;;5.60;99.90;;;6.77;74.22;101161.41;4827023;29;20220;-84
2021/04/18 04:02:01;;;;;;;9.82;5.00;;;5.60;99.90;;;6.83;74.11;101162.91;4828794;29;20042;-83
2021/04/18 04:04:27;;;;;;;10.02;5.13;;;5.70;99.90;;;6.85;74.25;101155.06;4812206;29;20121;-86
2021/04/18 04:06:53;;;;;;;11.90;5.03;;;5.70;99.90;;;6.88;74.60;101155.22;4812152;29;20403;-82
2021/04/18 04:09:19;;;;;;;8.70;5.35;;;5.70;99.90;;;6.85;74.93;101153.09;4798333;29;20125;-85
2021/04/18 04:11:45;;;;;;;9.77;5.28;;;5.70;99.90;;;6.76;76.50;101152.25;4793110;29;20057;-83
2021/04/18 04:14:11;;;;;;;9.95;5.30;;;5.60;99.90;;;6.68;77.15;101143.88;4793255;29;20126;-82
2021/04/18 04:16:37;;;;;;;8.60;5.65;;;5.60;99.90;;;6.56;77.92;101149.22;4793604;29;20039;-82
2021/04/18 04:19:03;;;;;;;9.48;5.50;;;5.40;99.90;;;6.42;78.88;101151.28;4792856;29;20042;-81
2021/04/18 04:21:28;;;;;;;12.63;5.80;;;5.30;99.90;;;6.29;78.68;101147.44;4793779;29;20034;-83
2021/04/18 04:23:54;;;;;;;10.32;6.25;;;5.20;99.90;;;6.24;78.92;101155.88;4794287;29;20031;-82
2021/04/18 04:26:21;;;;;;;11.18;5.47;;;5.20;99.90;;;6.26;79.11;101153.63;4793149;29;20034;-82
2021/04/18 04:28:47;;;;;;;10.45;5.90;;;5.20;99.90;;;6.34;78.60;101150.91;4809676;29;20036;-82
2021/04/18 04:31:13;;;;;;;10.75;5.85;;;5.20;99.90;;;6.39;78.55;101149.13;4793242;29;20045;-82
2021/04/18 04:33:39;;;;;;;9.20;5.57;;;5.30;99.90;;;6.47;78.21;101157.50;4793271;29;20050;-83
2021/04/18 04:36:07;;;;;;;12.73;5.43;;;5.30;99.90;;;6.55;77.56;101145.59;4793835;29;20406;-83
2021/04/18 04:38:34;;;;;;;8.32;4.72;;;5.40;99.90;;;6.62;77.28;101153.47;4793254;29;20452;-83
2021/04/18 04:41:01;;;;;;;11.38;5.60;;;5.40;99.90;;;6.70;76.74;101147.16;4793898;29;20038;-83
2021/04/18 04:43:27;;;;;;;12.63;5.82;;;5.50;99.90;;;6.78;76.17;101149.13;4792625;29;20119;-82
2021/04/18 04:45:53;;;;;;;13.68;5.85;;;5.60;99.90;;;6.84;75.48;101145.91;4808286;29;20042;-84
2021/04/18 04:48:21;;;;;;;11.75;5.35;;;5.60;99.90;;;6.90;75.33;101150.16;4792574;29;20092;-84
2021/04/18 04:50:48;;;;;;;11.73;6.45;;;5.70;99.90;;;6.99;75.30;101155.78;4791899;29;20117;-81
2021/04/18 04:53:14;;;;;;;11.98;4.93;;;5.80;99.90;;;7.06;74.89;101155.31;4809123;29;20530;-83
2021/04/18 04:55:42;;;;;;;10.43;4.97;;;5.80;99.90;;;7.12;75.34;101154.81;4808629;29;20142;-82
2021/04/18 04:58:08;;;;;;;14.52;6.00;;;5.90;99.90;;;7.20;75.27;101147.63;4793293;29;20035;-83
2021/04/18 05:00:34;;;;;;;9.32;5.22;;;6.00;99.90;;;7.27;75.23;101156.31;4792386;29;20039;-82
2021/04/18 05:03:00;;;;;;;9.55;5.03;;;6.00;99.90;;;7.32;75.04;101148.63;4810085;29;20117;-84
2021/04/18 05:05:25;;;;;;;10.85;5.80;;;6.10;99.90;;;7.39;75.88;101148.16;4810330;29;20031;-84
2021/04/18 05:07:51;;;;;;;12.13;5.82;;;6.20;99.90;;;7.48;75.29;101149.00;4811466;29;20096;-82
2021/04/18 05:10:17;;;;;;;11.63;5.47;;;6.20;99.90;;;7.57;75.03;101152.63;4811518;29;20057;-82
2021/04/18 05:12:43;;;;;;;14.85;5.53;;;6.30;99.90;;;7.56;74.42;101139.03;4812497;29;20068;-84
2021/04/18 05:15:11;;;;;;;10.18;5.40;;;6.30;99.90;;;7.47;74.45;101150.16;4829837;29;20034;-85
2021/04/18 05:17:36;;;;;;;8.63;5.30;;;6.30;99.90;;;7.60;74.49;101160.31;4829086;29;20037;-83
2021/04/18 05:20:04;;;;;;;11.40;5.93;;;6.30;99.90;;;7.62;73.91;101166.34;4827271;29;20070;-83
2021/04/18 05:22:30;;;;;;;11.38;5.38;;;6.30;99.90;;;7.60;73.04;101179.75;4827475;29;20123;-82
2021/04/18 05:24:56;;;;;;;11.80;5.55;;;6.30;99.90;;;7.66;72.71;101177.63;4810778;29;20197;-81
2021/04/18 05:27:22;;;;;;;9.27;5.50;;;6.40;99.90;;;7.72;72.63;101184.66;4812459;29;20084;-83
2021/04/18 05:29:48;;;;;;;9.93;5.28;;;6.40;99.90;;;7.76;72.63;101191.22;4830709;29;20069;-85
2021/04/18 05:32:14;;;;;;;9.90;5.30;;;6.40;99.90;;;7.82;71.83;101199.09;4796007;29;20054;-85
2021/04/18 05:34:40;;;;;;;11.38;5.35;;;6.50;99.90;;;7.87;70.83;101198.09;4811580;29;20556;-80
2021/04/18 05:37:06;;;;;;;17.58;6.88;;;6.50;99.90;;;7.92;70.54;101195.16;4811642;29;20030;-84
2021/04/18 05:39:32;;;;;;;9.75;5.45;;;6.60;99.90;;;7.92;70.48;101195.97;4827919;29;20049;-86
2021/04/18 05:41:58;;;;;;;15.45;6.20;;;6.60;99.90;;;8.02;70.44;101196.78;4827861;29;20444;-82
2021/04/18 05:44:24;;;;;;;8.68;4.70;;;6.70;99.90;;;8.10;69.90;101195.94;4811509;29;20034;-83
2021/04/18 05:46:50;;;;;;;10.25;5.18;;;6.70;99.90;;;8.14;70.25;101200.53;4811922;29;20125;-82
2021/04/18 05:49:16;;;;;;;9.18;5.75;;;6.80;99.90;;;8.18;69.74;101190.41;4828403;29;20031;-84
2021/04/18 05:51:42;;;;;;;13.68;5.88;;;6.80;99.90;;;8.20;69.65;101190.88;4810297;29;20376;-84
2021/04/18 05:54:08;;;;;;;10.90;5.57;;;6.80;99.90;;;8.22;69.36;101182.22;4809765;29;20141;-84
2021/04/18 05:56:35;;;;;;;15.38;5.70;;;6.90;99.90;;;8.25;69.70;101181.56;4826021;29;20102;-80
2021/04/18 05:59:01;;;;;;;9.93;5.00;;;6.90;99.90;;;8.22;69.67;101174.66;4823368;29;20042;-80
2021/04/18 06:01:27;;;;;;;13.15;6.25;;;6.90;99.90;;;8.27;69.32;101174.50;4812395;29;20538;-82
2021/04/18 06:03:56;;;;;;;9.90;5.93;;;6.90;99.90;;;8.31;70.01;101169.97;4814726;29;20030;-83
2021/04/18 06:06:24;;;;;;;10.05;5.93;;;7.00;99.90;;;8.30;68.74;101168.31;4810711;29;20035;-84
2021/04/18 06:08:50;;;;;;;10.68;5.50;;;7.00;99.90;;;8.36;68.12;101180.06;4818201;29;20131;-83
2021/04/18 06:11:17;;;;;;;12.00;6.13;;;7.10;99.90;;;8.41;68.37;101177.94;4798234;29;20034;-84
2021/04/18 06:13:43;;;;;;;14.50;6.38;;;7.10;99.90;;;8.41;68.13;101180.72;4806512;29;20077;-82
2021/04/18 06:16:10;;;;;;;13.18;5.80;;;7.10;99.90;;;8.50;68.21;101177.94;4805779;29;20066;-82
2021/04/18 06:18:36;;;;;;;10.40;6.25;;;7.20;99.90;;;8.57;67.78;101181.03;4819240;29;20066;-84
2021/04/18 06:21:04;;;;;;;12.55;6.65;;;7.20;99.90;;;8.62;67.95;101185.59;4795090;29;20122;-84
2021/04/18 06:23:30;;;;;;;12.93;6.68;;;7.30;99.90;;;8.61;67.51;101187.53;4813313;29;20035;-84
2021/04/18 06:25:56;;;;;;;10.18;6.15;;;7.30;99.90;;;8.64;67.71;101186.88;4797240;29;20098;-83
2021/04/18 06:28:22;;;;;;;14.70;6.35;;;7.30;99.90;;;8.75;67.71;101192.91;4813110;29;20498;-85
2021/04/18 06:30:49;;;;;;;11.88;6.78;;;7.40;99.90;;;8.83;67.81;101184.53;4796407;29;20031;-84
2021/04/18 06:33:15;;;;;;;9.15;5.57;;;7.40;99.90;;;8.90;67.97;101182.03;4796487;29;20095;-85
2021/04/18 06:35:42;;;;;;;11.27;6.13;;;7.50;99.90;;;8.95;68.94;101176.31;4813649;29;20040;-83
2021/04/18 06:38:10;;;;;;;11.75;6.28;;;7.60;99.90;;;9.02;67.94;101187.72;4796971;29;20038;-83
2021/04/18 06:40:36;;;;;;;12.27;5.55;;;7.60;99.90;;;9.00;67.48;101197.56;4796623;29;20042;-84
2021/04/18 06:43:09;;;;;;;14.98;7.05;;;7.60;99.90;;;8.95;67.05;101190.22;4796521;29;20172;-83
2021/04/18 06:45:36;;;;;;;13.90;6.20;;;7.60;99.90;;;8.97;67.05;101199.06;4812789;29;20030;-85
2021/04/18 06:48:02;;;;;;;9.82;6.07;;;7.60;99.90;;;9.03;66.92;101210.81;4796021;29;20027;-86
2021/04/18 06:50:28;;;;;;;10.80;6.13;;;7.70;99.90;;;9.10;66.87;101219.50;4796086;29;20460;-84
2021/04/18 06:52:54;;;;;;;16.10;7.15;;;7.70;99.90;;;9.18;66.37;101209.47;4813064;29;20039;-85
2021/04/18 06:55:21;;;;;;;12.05;6.43;;;7.70;99.90;;;9.12;66.42;101205.25;4795702;29;20053;-83
2021/04/18 06:57:47;;;;;;;15.23;6.35;;;7.70;99.90;;;9.15;66.30;101202.56;4810154;29;20046;-81
2021/04/18 07:00:15;;;;;;;11.10;6.00;;;7.70;99.90;;;9.19;66.11;101211.09;4811808;29;20031;-82
2021/04/18 07:02:41;;;;;;;12.90;7.13;;;7.70;99.90;;;9.19;66.38;101211.91;4794611;29;20026;-83
2021/04/18 07:05:15;;;;;;;11.52;6.45;;;7.80;99.90;;;9.17;66.37;101208.66;4811227;29;20404;-82
2021/04/18 07:07:48;;;;;;;11.90;6.55;;;7.80;99.90;;;9.31;66.25;101202.84;4813133;29;20058;-83
2021/04/18 07:10:34;;;;;;;11.18;6.20;;;7.90;99.90;;;9.48;66.54;101197.16;4813117;29;20037;-85
2021/04/18 07:13:14;;;;;;;14.52;7.18;;;8.00;99.90;;;9.59;65.22;101195.63;4812814;29;20050;-86
2021/04/18 07:15:47;;;;;;;11.15;6.75;;;8.20;99.90;;;9.80;64.88;101202.00;4829403;29;20042;-85
2021/04/18 07:18:39;;;;;;;16.15;7.47;;;8.40;99.90;;;9.98;64.02;101199.94;4812533;29;20038;-87
2021/04/18 07:21:07;;;;;;;11.07;6.45;;;8.50;99.90;;;10.23;64.42;101198.91;4829580;29;20034;-84
2021/04/18 07:23:35;;;;;;;13.60;6.50;;;8.70;99.90;;;10.35;63.57;101196.16;4829521;29;20034;-84
2021/04/18 07:26:33;;;;;;;13.30;7.55;;;8.80;99.90;;;10.54;63.80;101190.03;4813655;29;20038;-84
2021/04/18 07:29:17;;;;;;;16.67;7.60;;;9.00;99.90;;;10.66;63.12;101176.09;4808762;29;20324;-84
2021/04/18 07:31:45;;;;;;;14.70;7.45;;;9.20;99.90;;;10.81;62.78;101178.25;4814072;29;20421;-85
2021/04/18 07:34:19;;;;;;;11.82;6.78;;;9.20;99.90;;;10.83;62.23;101180.69;4812799;29;20031;-85
2021/04/18 07:36:51;;;;;;;14.00;6.95;;;9.30;99.90;;;10.76;62.26;101180.44;4829266;29;20031;-83
2021/04/18 07:39:19;;;;;;;13.20;6.57;;;9.20;99.90;;;10.48;62.56;101174.66;4812357;29;20083;-81
2021/04/18 07:41:53;;;;;;;15.15;7.50;;;9.10;99.90;;;10.34;64.30;101186.13;4812794;29;20058;-84
2021/04/18 07:44:19;;;;;;;12.98;7.38;;;8.90;99.90;;;10.16;65.49;101184.69;4812699;29;20479;-86
2021/04/18 07:46:51;;;;;;;14.35;7.43;;;8.90;99.90;;;10.18;66.29;101175.97;4813298;29;20034;-86
2021/04/18 07:49:19;;;;;;;12.93;7.43;;;8.80;99.90;;;10.23;66.87;101178.53;4812888;29;20414;-83
2021/04/18 07:51:49;;;;;;;16.70;6.95;;;8.80;99.90;;;10.36;65.83;101167.09;4812733;29;20031;-83
2021/04/18 07:54:18;;;;;;;14.38;8.00;;;8.90;99.90;;;10.38;64.93;101161.13;4812025;29;20033;-85
2021/04/18 07:56:48;;;;;;;17.02;9.00;;;9.00;99.90;;;10.38;64.57;101163.94;4812887;29;20042;-84
2021/04/18 07:59:17;;;;;;;17.02;7.90;;;9.00;99.90;;;10.53;63.84;101166.09;4829046;29;20045;-85
2021/04/18 08:01:44;;;;;;;11.80;7.53;;;9.10;99.90;;;10.75;64.08;101160.09;4813036;29;20522;-82
2021/04/18 08:04:12;;;;;;;12.75;7.10;;;9.20;99.90;;;11.11;63.06;101154.50;4809957;29;20038;-84
2021/04/18 08:06:42;;;;;;;12.00;8.00;;;9.50;99.90;;;11.49;61.60;101150.53;4796859;29;20027;-86
2021/04/18 08:09:23;;;;;;;14.00;8.13;;;9.80;99.90;;;11.64;60.08;101158.19;4806990;29;20042;-85
2021/04/18 08:12:18;;;;;;;14.52;7.68;;;10.00;99.90;;;11.72;59.61;101162.84;4812765;29;20133;-84
2021/04/18 08:15:08;;;;;;;15.30;7.25;;;10.10;99.90;;;11.70;59.57;101165.19;4810849;29;20066;-83
2021/04/18 08:18:09;;;;;;;11.70;7.88;;;10.10;99.90;;;11.47;58.87;101158.44;4828381;29;20057;-83
2021/04/18 08:20:47;;;;;;;15.95;8.15;;;10.00;99.90;;;11.34;60.53;101162.41;4818831;29;20026;-83
2021/04/18 08:23:17;;;;;;;14.32;7.35;;;9.90;99.90;;;11.44;59.97;101162.75;4828215;29;20038;-81
2021/04/18 08:26:17;;;;;;;12.25;8.23;;;9.90;99.90;;;11.80;59.29;101164.69;4811949;29;20152;-83
2021/04/18 08:29:08;;;;;;;16.15;7.90;;;10.10;99.90;;;12.05;59.31;101157.84;4828325;29;20041;-83
2021/04/18 08:31:49;;;;;;;12.02;7.20;;;10.40;99.90;;;12.34;57.60;101172.66;4813021;29;20053;-86
2021/04/18 08:34:21;;;;;;;13.38;6.40;;;10.60;99.90;;;12.44;56.49;101177.75;4812151;29;20038;-86
2021/04/18 08:36:52;;;;;;;17.77;7.85;;;10.70;99.90;;;12.66;56.24;101177.16;4812695;29;20364;-83
2021/04/18 08:39:26;;;;;;;14.25;7.35;;;10.90;99.90;;;13.28;54.12;101184.00;4833351;29;20498;-85
2021/04/18 08:42:00;;;;;;;11.32;7.40;;;11.50;99.90;;;13.94;53.34;101178.28;4820541;29;20046;-83
2021/04/18 08:44:39;;;;;;;11.68;6.75;;;11.90;99.90;;;14.15;51.55;101185.22;4828818;29;20110;-85
2021/04/18 08:47:19;;;;;;;15.77;7.38;;;12.20;99.90;;;13.93;51.57;101188.75;4812500;29;20431;-84
2021/04/18 08:49:53;;;;;;;10.52;6.93;;;12.00;99.90;;;13.83;52.13;101192.13;4827975;29;20026;-81
2021/04/18 08:52:24;;;;;;;12.57;7.00;;;12.00;99.90;;;13.83;52.19;101189.31;4810764;29;20034;-84
2021/04/18 08:54:55;;;;;;;14.65;6.40;;;12.00;99.90;;;13.88;50.49;101185.38;4811020;29;20046;-84
2021/04/18 08:57:26;;;;;;;12.73;7.05;;;12.10;99.90;;;13.64;51.65;101175.25;4810718;29;20037;-85
2021/04/18 09:00:08;;;;;;;13.70;7.82;;;12.00;99.90;;;13.18;52.92;101168.53;4811392;29;20042;-83
2021/04/18 09:02:34;;;;;;;12.00;7.32;;;11.70;99.90;;;13.11;54.04;101152.34;4829525;29;20038;-84
2021/04/18 09:05:15;;;;;;;17.45;7.20;;;11.60;99.90;;;13.22;54.04;101157.41;4828131;29;20062;-83
2021/04/18 09:07:44;;;;;;;13.93;6.80;;;11.60;99.90;;;13.19;53.37;101162.56;4827646;29;20037;-84
2021/04/18 09:10:12;;;;;;;14.73;7.30;;;11.70;99.90;;;12.99;54.71;101168.41;4792777;29;20453;-83
2021/04/18 09:12:39;;;;;;;13.02;8.07;;;11.60;99.90;;;13.35;53.83;101170.97;4809168;29;20050;-83
2021/04/18 09:15:08;;;;;;;15.43;8.30;;;11.70;99.90;;;13.85;52.41;101172.91;4793142;29;20039;-82
2021/04/18 09:17:38;;;;;;;11.20;6.95;;;12.10;99.90;;;14.63;50.76;101182.97;4809186;29;20054;-84
2021/04/18 09:20:11;;;;;;;11.70;7.07;;;12.70;99.90;;;15.14;49.18;101173.03;4793125;29;20062;-83
2021/04/18 09:22:40;;;;;;;13.00;6.93;;;13.20;99.90;;;15.82;47.87;101175.75;4793671;29;20046;-83
2021/04/18 09:25:14;;;;;;;16.17;7.07;;;13.80;98.60;;;15.87;46.88;101170.94;4793712;29;20031;-84
2021/04/18 09:27:49;;;;;;;11.00;6.50;;;14.00;94.10;;;15.93;46.54;101175.06;4810429;29;20027;-86
2021/04/18 09:30:20;;;;;;;11.95;7.28;;;14.10;92.90;;;15.71;47.56;101174.78;4809558;29;20058;-82
2021/04/18 09:32:54;;;;;;;10.20;6.50;;;14.10;93.10;;;15.50;47.53;101180.09;4808756;29;20035;-82
2021/04/18 09:35:24;;;;;;;12.70;7.00;;;13.90;92.30;;;15.35;47.49;101175.38;4793256;29;20039;-82
2021/04/18 09:38:02;;;;;;;12.65;7.60;;;13.70;92.10;;;14.56;49.61;101177.22;4794024;29;20043;-84
2021/04/18 09:40:36;;;;;;;17.27;7.38;;;13.40;93.80;;;14.57;49.85;101178.84;4809501;29;20062;-83
2021/04/18 09:43:08;;;;;;;10.63;7.18;;;13.10;95.80;;;14.65;49.57;101164.53;4791775;29;20027;-86
2021/04/18 09:45:36;;;;;;;12.52;7.65;;;13.20;95.50;;;14.97;48.93;101169.91;4807350;29;20027;-86
2021/04/18 09:48:20;;;;;;;12.63;7.00;;;13.30;95.60;;;15.26;47.82;101161.59;4794417;29;20084;-87
2021/04/18 09:51:02;;;;;;;17.13;7.45;;;13.50;93.50;;;15.86;46.07;101163.72;4792823;29;20045;-83
2021/04/18 09:53:29;;;;;;;12.43;7.18;;;14.00;91.40;;;16.54;44.51;101160.50;4792171;29;20058;-83
2021/04/18 09:56:04;;;;;;;10.50;6.55;;;14.40;89.30;;;16.99;43.57;101165.84;4791673;29;20043;-82
2021/04/18 09:58:41;;;;;;;14.65;7.25;;;14.90;86.60;;;16.76;43.72;101162.41;4795084;29;20035;-84
2021/04/18 10:01:29;;;;;;;10.70;6.50;;;14.80;83.40;;;16.56;44.69;101164.63;4811476;29;20122;-82
2021/04/18 10:03:55;;;;;;;15.02;6.68;;;14.80;83.90;;;16.50;44.29;101165.31;4796635;29;20396;-83
2021/04/18 10:06:23;;;;;;;9.77;6.65;;;14.70;83.20;;;15.95;46.21;101162.25;4795210;29;20049;-81
2021/04/18 10:09:04;;;;;;;11.00;7.03;;;14.50;84.70;;;15.69;46.14;101162.28;4803248;29;20030;-82
2021/04/18 10:11:30;;;;;;;13.18;6.93;;;14.30;84.40;;;15.41;47.08;101165.41;4828275;29;20526;-83
2021/04/18 10:14:00;;;;;;;12.90;6.22;;;14.00;86.60;;;15.07;47.54;101153.22;4813714;29;20415;-80
2021/04/18 10:16:32;;;;;;;13.48;7.50;;;13.80;87.10;;;15.37;47.31;101161.75;4816150;29;20037;-83
2021/04/18 10:19:22;;;;;;;14.63;7.53;;;13.70;88.40;;;15.39;47.04;101161.38;4831059;29;20475;-84
2021/04/18 10:22:10;;;;;;;12.63;7.55;;;13.70;88.50;;;15.25;47.63;101148.69;4823519;29;20374;-82
2021/04/18 10:24:42;;;;;;;13.93;7.70;;;13.70;89.80;;;15.34;47.82;101153.25;4808250;29;20189;-83
2021/04/18 10:27:13;;;;;;;12.35;6.97;;;13.70;90.40;;;15.44;47.50;101155.44;4805713;29;20023;-82